sensor_id;sensor_type;location;lat;lon;timestamp;temperature;humidity
4637;DHT22;2331;48.806;9.140;2024-01-30T00:01:51;7.30;1.00
4637;DHT22;2331;48.806;9.140;2024-01-30T00:04:18;7.40;1.00
4637;DHT22;2331;48.806;9.140;2024-01-30T00:06:46;7.30;1.00
4637;DHT22;2331;48.806;9.140;2024-01-30T00:09:13;7.30;1.00
4637;DHT22;2331;48.806;9.140;2024-01-30T00:11:40;7.30;1.00
4637;DHT22;2331;48.806;9.140;2024-01-30T00:14:07;7.30;1.00
4637;DHT22;2331;48.806;9.140;2024-01-30T00:16:34;7.30;1.00
4637;DHT22;2331;48.806;9.140;2024-01-30T00:19:00;7.30;1.00
4637;DHT22;2331;48.806;9.140;2024-01-30T00:21:28;7.20;1.00
4637;DHT22;2331;48.806;9.140;2024-01-30T00:23:56;7.20;1.00
4637;DHT22;2331;48.806;9.140;2024-01-30T00:26:22;7.20;1.00
4637;DHT22;2331;48.806;9.140;2024-01-30T00:28:49;7.30;1.00
4637;DHT22;2331;48.806;9.140;2024-01-30T00:31:16;7.20;1.00
4637;DHT22;2331;48.806;9.140;2024-01-30T00:33:43;7.20;1.00
4637;DHT22;2331;48.806;9.140;2024-01-30T00:36:10;7.20;1.00
4637;DHT22;2331;48.806;9.140;2024-01-30T00:38:37;7.20;1.00
4637;DHT22;2331;48.806;9.140;2024-01-30T00:41:05;7.20;1.00
4637;DHT22;2331;48.806;9.140;2024-01-30T00:43:32;7.10;1.00
4637;DHT22;2331;48.806;9.140;2024-01-30T00:45:58;7.10;1.00
4637;DHT22;2331;48.806;9.140;2024-01-30T00:48:25;7.00;1.00
4637;DHT22;2331;48.806;9.140;2024-01-30T00:50:52;6.90;1.00
4637;DHT22;2331;48.806;9.140;2024-01-30T00:53:19;7.00;1.00
4637;DHT22;2331;48.806;9.140;2024-01-30T00:55:45;6.90;1.00
4637;DHT22;2331;48.806;9.140;2024-01-30T00:58:14;6.90;1.00
4637;DHT22;2331;48.806;9.140;2024-01-30T01:00:40;6.90;1.00
4637;DHT22;2331;48.806;9.140;2024-01-30T01:03:07;6.90;1.00
4637;DHT22;2331;48.806;9.140;2024-01-30T01:05:34;6.90;1.00
4637;DHT22;2331;48.806;9.140;2024-01-30T01:08:01;7.00;1.00
4637;DHT22;2331;48.806;9.140;2024-01-30T01:10:27;6.90;1.00
4637;DHT22;2331;48.806;9.140;2024-01-30T01:12:54;7.00;1.00
4637;DHT22;2331;48.806;9.140;2024-01-30T01:15:22;7.00;1.00
4637;DHT22;2331;48.806;9.140;2024-01-30T01:17:49;7.00;1.00
4637;DHT22;2331;48.806;9.140;2024-01-30T01:20:15;7.00;1.00
4637;DHT22;2331;48.806;9.140;2024-01-30T01:22:42;6.90;1.00
4637;DHT22;2331;48.806;9.140;2024-01-30T01:25:09;7.00;1.00
4637;DHT22;2331;48.806;9.140;2024-01-30T01:27:36;7.00;1.00
4637;DHT22;2331;48.806;9.140;2024-01-30T01:30:08;7.00;1.00
4637;DHT22;2331;48.806;9.140;2024-01-30T01:32:37;7.00;1.00
4637;DHT22;2331;48.806;9.140;2024-01-30T01:35:04;7.00;1.00
4637;DHT22;2331;48.806;9.140;2024-01-30T01:37:31;7.00;1.00
4637;DHT22;2331;48.806;9.140;2024-01-30T01:39:59;7.00;1.00
4637;DHT22;2331;48.806;9.140;2024-01-30T01:42:26;7.00;1.00
4637;DHT22;2331;48.806;9.140;2024-01-30T01:44:53;6.90;1.00
4637;DHT22;2331;48.806;9.140;2024-01-30T01:47:20;7.00;1.00
4637;DHT22;2331;48.806;9.140;2024-01-30T01:49:48;6.90;1.00
4637;DHT22;2331;48.806;9.140;2024-01-30T01:52:15;6.90;1.00
4637;DHT22;2331;48.806;9.140;2024-01-30T01:54:43;6.90;1.00
4637;DHT22;2331;48.806;9.140;2024-01-30T01:57:10;6.90;1.00
4637;DHT22;2331;48.806;9.140;2024-01-30T01:59:37;6.90;1.00
4637;DHT22;2331;48.806;9.140;2024-01-30T02:02:04;6.90;1.00
4637;DHT22;2331;48.806;9.140;2024-01-30T02:04:33;6.80;1.00
4637;DHT22;2331;48.806;9.140;2024-01-30T02:07:01;6.80;1.00
4637;DHT22;2331;48.806;9.140;2024-01-30T02:09:27;6.80;1.00
4637;DHT22;2331;48.806;9.140;2024-01-30T02:11:54;6.80;1.00
4637;DHT22;2331;48.806;9.140;2024-01-30T02:14:21;6.80;1.00
4637;DHT22;2331;48.806;9.140;2024-01-30T02:16:48;6.70;1.00
4637;DHT22;2331;48.806;9.140;2024-01-30T02:19:15;6.70;1.00
4637;DHT22;2331;48.806;9.140;2024-01-30T02:21:43;6.70;1.00
4637;DHT22;2331;48.806;9.140;2024-01-30T02:24:11;6.70;1.00
4637;DHT22;2331;48.806;9.140;2024-01-30T02:26:38;6.70;1.00
4637;DHT22;2331;48.806;9.140;2024-01-30T02:29:05;6.70;1.00
4637;DHT22;2331;48.806;9.140;2024-01-30T02:31:31;6.70;1.00
4637;DHT22;2331;48.806;9.140;2024-01-30T02:33:58;6.70;1.00
4637;DHT22;2331;48.806;9.140;2024-01-30T02:36:25;6.60;1.00
4637;DHT22;2331;48.806;9.140;2024-01-30T02:38:53;6.60;1.00
4637;DHT22;2331;48.806;9.140;2024-01-30T02:41:20;6.60;1.00
4637;DHT22;2331;48.806;9.140;2024-01-30T02:43:47;6.60;1.00
4637;DHT22;2331;48.806;9.140;2024-01-30T02:46:14;6.60;1.00
4637;DHT22;2331;48.806;9.140;2024-01-30T02:48:40;6.60;1.00
4637;DHT22;2331;48.806;9.140;2024-01-30T02:51:07;6.60;1.00
4637;DHT22;2331;48.806;9.140;2024-01-30T02:53:34;6.60;1.00
4637;DHT22;2331;48.806;9.140;2024-01-30T02:56:02;6.50;1.00
4637;DHT22;2331;48.806;9.140;2024-01-30T02:58:31;6.50;1.00
4637;DHT22;2331;48.806;9.140;2024-01-30T03:00:57;6.50;1.00
4637;DHT22;2331;48.806;9.140;2024-01-30T03:03:24;6.50;1.00
4637;DHT22;2331;48.806;9.140;2024-01-30T03:05:51;6.50;1.00
4637;DHT22;2331;48.806;9.140;2024-01-30T03:08:17;6.40;1.00
4637;DHT22;2331;48.806;9.140;2024-01-30T03:10:44;6.40;1.00
4637;DHT22;2331;48.806;9.140;2024-01-30T03:13:12;6.40;1.00
4637;DHT22;2331;48.806;9.140;2024-01-30T03:15:39;6.40;1.00
4637;DHT22;2331;48.806;9.140;2024-01-30T03:18:06;6.40;1.00
4637;DHT22;2331;48.806;9.140;2024-01-30T03:20:33;6.40;1.00
4637;DHT22;2331;48.806;9.140;2024-01-30T03:23:00;6.40;1.00
4637;DHT22;2331;48.806;9.140;2024-01-30T03:25:26;6.40;1.00
4637;DHT22;2331;48.806;9.140;2024-01-30T03:27:53;6.30;1.00
4637;DHT22;2331;48.806;9.140;2024-01-30T03:30:21;6.40;1.00
4637;DHT22;2331;48.806;9.140;2024-01-30T03:32:48;6.30;1.00
4637;DHT22;2331;48.806;9.140;2024-01-30T03:35:15;6.30;1.00
4637;DHT22;2331;48.806;9.140;2024-01-30T03:37:42;6.30;1.00
4637;DHT22;2331;48.806;9.140;2024-01-30T03:40:10;6.30;1.00
4637;DHT22;2331;48.806;9.140;2024-01-30T03:42:37;6.30;1.00
4637;DHT22;2331;48.806;9.140;2024-01-30T03:45:04;6.30;1.00
4637;DHT22;2331;48.806;9.140;2024-01-30T03:47:32;6.20;1.00
4637;DHT22;2331;48.806;9.140;2024-01-30T03:49:59;6.30;1.00
4637;DHT22;2331;48.806;9.140;2024-01-30T03:52:26;6.20;1.00
4637;DHT22;2331;48.806;9.140;2024-01-30T03:54:53;6.20;1.00
4637;DHT22;2331;48.806;9.140;2024-01-30T03:57:19;6.20;1.00
4637;DHT22;2331;48.806;9.140;2024-01-30T03:59:46;6.20;1.00
4637;DHT22;2331;48.806;9.140;2024-01-30T04:02:13;6.20;1.00
4637;DHT22;2331;48.806;9.140;2024-01-30T04:04:41;6.20;1.00
4637;DHT22;2331;48.806;9.140;2024-01-30T04:07:08;6.10;1.00
4637;DHT22;2331;48.806;9.140;2024-01-30T04:09:35;6.20;1.00
4637;DHT22;2331;48.806;9.140;2024-01-30T04:12:01;6.20;1.00
4637;DHT22;2331;48.806;9.140;2024-01-30T04:14:29;6.10;1.00
4637;DHT22;2331;48.806;9.140;2024-01-30T04:16:56;6.10;1.00
4637;DHT22;2331;48.806;9.140;2024-01-30T04:19:22;6.10;1.00
4637;DHT22;2331;48.806;9.140;2024-01-30T04:21:51;6.00;1.00
4637;DHT22;2331;48.806;9.140;2024-01-30T04:24:18;6.00;1.00
4637;DHT22;2331;48.806;9.140;2024-01-30T04:26:44;6.00;1.00
4637;DHT22;2331;48.806;9.140;2024-01-30T04:29:11;6.00;1.00
4637;DHT22;2331;48.806;9.140;2024-01-30T04:31:38;6.00;1.00
4637;DHT22;2331;48.806;9.140;2024-01-30T04:34:05;6.00;1.00
4637;DHT22;2331;48.806;9.140;2024-01-30T04:36:31;6.00;1.00
4637;DHT22;2331;48.806;9.140;2024-01-30T04:38:59;6.00;1.00
4637;DHT22;2331;48.806;9.140;2024-01-30T04:41:26;6.00;1.00
4637;DHT22;2331;48.806;9.140;2024-01-30T04:43:56;6.00;1.00
4637;DHT22;2331;48.806;9.140;2024-01-30T04:46:23;5.90;1.00
4637;DHT22;2331;48.806;9.140;2024-01-30T04:48:50;6.00;1.00
4637;DHT22;2331;48.806;9.140;2024-01-30T04:51:16;5.90;1.00
4637;DHT22;2331;48.806;9.140;2024-01-30T04:53:43;5.90;1.00
4637;DHT22;2331;48.806;9.140;2024-01-30T04:56:11;5.90;1.00
4637;DHT22;2331;48.806;9.140;2024-01-30T04:58:38;5.90;1.00
4637;DHT22;2331;48.806;9.140;2024-01-30T05:01:05;5.90;1.00
4637;DHT22;2331;48.806;9.140;2024-01-30T05:03:33;5.90;1.00
4637;DHT22;2331;48.806;9.140;2024-01-30T05:06:00;5.90;1.00
4637;DHT22;2331;48.806;9.140;2024-01-30T05:08:27;5.90;1.00
4637;DHT22;2331;48.806;9.140;2024-01-30T05:10:53;5.90;1.00
4637;DHT22;2331;48.806;9.140;2024-01-30T05:13:22;5.90;1.00
4637;DHT22;2331;48.806;9.140;2024-01-30T05:15:48;5.90;1.00
4637;DHT22;2331;48.806;9.140;2024-01-30T05:18:15;5.90;1.00
4637;DHT22;2331;48.806;9.140;2024-01-30T05:20:42;5.80;1.00
4637;DHT22;2331;48.806;9.140;2024-01-30T05:23:08;5.80;1.00
4637;DHT22;2331;48.806;9.140;2024-01-30T05:25:35;5.80;1.00
4637;DHT22;2331;48.806;9.140;2024-01-30T05:28:02;5.80;1.00
4637;DHT22;2331;48.806;9.140;2024-01-30T05:30:30;5.80;1.00
4637;DHT22;2331;48.806;9.140;2024-01-30T05:32:57;5.80;1.00
4637;DHT22;2331;48.806;9.140;2024-01-30T05:35:24;5.70;1.00
4637;DHT22;2331;48.806;9.140;2024-01-30T05:37:51;5.70;1.00
4637;DHT22;2331;48.806;9.140;2024-01-30T05:40:17;5.80;1.00
4637;DHT22;2331;48.806;9.140;2024-01-30T05:42:44;5.80;1.00
4637;DHT22;2331;48.806;9.140;2024-01-30T05:45:11;5.80;1.00
4637;DHT22;2331;48.806;9.140;2024-01-30T05:47:39;5.70;1.00
4637;DHT22;2331;48.806;9.140;2024-01-30T05:50:07;5.70;1.00
4637;DHT22;2331;48.806;9.140;2024-01-30T05:52:33;5.70;1.00
4637;DHT22;2331;48.806;9.140;2024-01-30T05:55:00;5.70;1.00
4637;DHT22;2331;48.806;9.140;2024-01-30T05:57:27;5.70;1.00
4637;DHT22;2331;48.806;9.140;2024-01-30T05:59:54;5.70;1.00
4637;DHT22;2331;48.806;9.140;2024-01-30T06:02:21;5.70;1.00
4637;DHT22;2331;48.806;9.140;2024-01-30T06:04:49;5.70;1.00
4637;DHT22;2331;48.806;9.140;2024-01-30T06:07:15;5.70;1.00
4637;DHT22;2331;48.806;9.140;2024-01-30T06:09:42;5.60;1.00
4637;DHT22;2331;48.806;9.140;2024-01-30T06:12:09;5.60;1.00
4637;DHT22;2331;48.806;9.140;2024-01-30T06:14:37;5.60;1.00
4637;DHT22;2331;48.806;9.140;2024-01-30T06:17:04;5.60;1.00
4637;DHT22;2331;48.806;9.140;2024-01-30T06:19:31;5.60;1.00
4637;DHT22;2331;48.806;9.140;2024-01-30T06:21:59;5.50;1.00
4637;DHT22;2331;48.806;9.140;2024-01-30T06:24:26;5.60;1.00
4637;DHT22;2331;48.806;9.140;2024-01-30T06:26:53;5.50;1.00
4637;DHT22;2331;48.806;9.140;2024-01-30T06:29:20;5.50;1.00
4637;DHT22;2331;48.806;9.140;2024-01-30T06:31:47;5.60;1.00
4637;DHT22;2331;48.806;9.140;2024-01-30T06:34:14;5.60;1.00
4637;DHT22;2331;48.806;9.140;2024-01-30T06:36:41;5.60;1.00
4637;DHT22;2331;48.806;9.140;2024-01-30T06:39:09;5.60;1.00
4637;DHT22;2331;48.806;9.140;2024-01-30T06:41:35;5.60;1.00
4637;DHT22;2331;48.806;9.140;2024-01-30T06:44:02;5.60;1.00
4637;DHT22;2331;48.806;9.140;2024-01-30T06:46:31;5.60;1.00
4637;DHT22;2331;48.806;9.140;2024-01-30T06:48:58;5.50;1.00
4637;DHT22;2331;48.806;9.140;2024-01-30T06:51:25;5.60;1.00
4637;DHT22;2331;48.806;9.140;2024-01-30T06:53:52;5.50;1.00
4637;DHT22;2331;48.806;9.140;2024-01-30T06:56:20;5.50;1.00
4637;DHT22;2331;48.806;9.140;2024-01-30T06:58:47;5.50;1.00
4637;DHT22;2331;48.806;9.140;2024-01-30T07:01:14;5.50;1.00
4637;DHT22;2331;48.806;9.140;2024-01-30T07:03:41;5.50;1.00
4637;DHT22;2331;48.806;9.140;2024-01-30T07:06:08;5.50;1.00
4637;DHT22;2331;48.806;9.140;2024-01-30T07:08:34;5.50;1.00
4637;DHT22;2331;48.806;9.140;2024-01-30T07:11:01;5.50;1.00
4637;DHT22;2331;48.806;9.140;2024-01-30T07:13:29;5.50;1.00
4637;DHT22;2331;48.806;9.140;2024-01-30T07:15:56;5.50;1.00
4637;DHT22;2331;48.806;9.140;2024-01-30T07:18:22;5.50;1.00
4637;DHT22;2331;48.806;9.140;2024-01-30T07:20:49;5.50;1.00
4637;DHT22;2331;48.806;9.140;2024-01-30T07:23:16;5.50;1.00
4637;DHT22;2331;48.806;9.140;2024-01-30T07:25:44;5.50;1.00
4637;DHT22;2331;48.806;9.140;2024-01-30T07:28:11;5.40;1.00
4637;DHT22;2331;48.806;9.140;2024-01-30T07:30:40;5.50;1.00
4637;DHT22;2331;48.806;9.140;2024-01-30T07:33:07;5.50;1.00
4637;DHT22;2331;48.806;9.140;2024-01-30T07:35:35;5.50;1.00
4637;DHT22;2331;48.806;9.140;2024-01-30T07:38:02;5.50;1.00
4637;DHT22;2331;48.806;9.140;2024-01-30T07:40:28;5.50;1.00
4637;DHT22;2331;48.806;9.140;2024-01-30T07:42:55;5.50;1.00
4637;DHT22;2331;48.806;9.140;2024-01-30T07:45:22;5.50;1.00
4637;DHT22;2331;48.806;9.140;2024-01-30T07:47:51;5.50;1.00
4637;DHT22;2331;48.806;9.140;2024-01-30T07:50:18;5.50;1.00
4637;DHT22;2331;48.806;9.140;2024-01-30T07:52:45;5.60;1.00
4637;DHT22;2331;48.806;9.140;2024-01-30T07:55:14;5.60;1.00
4637;DHT22;2331;48.806;9.140;2024-01-30T07:57:41;5.60;1.00
4637;DHT22;2331;48.806;9.140;2024-01-30T08:00:09;5.60;1.00
4637;DHT22;2331;48.806;9.140;2024-01-30T08:02:36;5.60;1.00
4637;DHT22;2331;48.806;9.140;2024-01-30T08:05:04;5.60;1.00
4637;DHT22;2331;48.806;9.140;2024-01-30T08:07:31;5.60;1.00
4637;DHT22;2331;48.806;9.140;2024-01-30T08:09:58;5.60;1.00
4637;DHT22;2331;48.806;9.140;2024-01-30T08:12:25;5.70;1.00
4637;DHT22;2331;48.806;9.140;2024-01-30T08:14:51;5.70;1.00
4637;DHT22;2331;48.806;9.140;2024-01-30T08:17:18;5.80;1.00
4637;DHT22;2331;48.806;9.140;2024-01-30T08:19:45;5.80;1.00
4637;DHT22;2331;48.806;9.140;2024-01-30T08:22:13;5.80;1.00
4637;DHT22;2331;48.806;9.140;2024-01-30T08:24:41;5.80;1.00
4637;DHT22;2331;48.806;9.140;2024-01-30T08:27:08;5.80;1.00
4637;DHT22;2331;48.806;9.140;2024-01-30T08:29:35;5.80;1.00
4637;DHT22;2331;48.806;9.140;2024-01-30T08:32:02;5.90;1.00
4637;DHT22;2331;48.806;9.140;2024-01-30T08:34:29;5.90;1.00
4637;DHT22;2331;48.806;9.140;2024-01-30T08:36:56;5.90;1.00
4637;DHT22;2331;48.806;9.140;2024-01-30T08:39:24;5.90;1.00
4637;DHT22;2331;48.806;9.140;2024-01-30T08:41:51;5.90;1.00
4637;DHT22;2331;48.806;9.140;2024-01-30T08:44:18;6.00;1.00
4637;DHT22;2331;48.806;9.140;2024-01-30T08:46:44;6.00;1.00
4637;DHT22;2331;48.806;9.140;2024-01-30T08:49:11;6.00;1.00
4637;DHT22;2331;48.806;9.140;2024-01-30T08:51:39;6.00;1.00
4637;DHT22;2331;48.806;9.140;2024-01-30T08:54:05;6.10;1.00
4637;DHT22;2331;48.806;9.140;2024-01-30T08:56:34;6.10;1.00
4637;DHT22;2331;48.806;9.140;2024-01-30T08:59:00;6.20;1.00
4637;DHT22;2331;48.806;9.140;2024-01-30T09:01:27;6.20;1.00
4637;DHT22;2331;48.806;9.140;2024-01-30T09:03:54;6.20;1.00
4637;DHT22;2331;48.806;9.140;2024-01-30T09:06:21;6.30;1.00
4637;DHT22;2331;48.806;9.140;2024-01-30T09:08:47;6.30;1.00
4637;DHT22;2331;48.806;9.140;2024-01-30T09:11:16;6.30;1.00
4637;DHT22;2331;48.806;9.140;2024-01-30T09:13:44;6.40;1.00
4637;DHT22;2331;48.806;9.140;2024-01-30T09:16:11;6.40;1.00
4637;DHT22;2331;48.806;9.140;2024-01-30T09:18:38;6.50;1.00
4637;DHT22;2331;48.806;9.140;2024-01-30T09:21:05;6.50;1.00
4637;DHT22;2331;48.806;9.140;2024-01-30T09:23:32;6.60;1.00
4637;DHT22;2331;48.806;9.140;2024-01-30T09:25:59;6.70;1.00
4637;DHT22;2331;48.806;9.140;2024-01-30T09:28:25;6.70;1.00
4637;DHT22;2331;48.806;9.140;2024-01-30T09:30:54;6.70;1.00
4637;DHT22;2331;48.806;9.140;2024-01-30T09:33:20;6.80;1.00
4637;DHT22;2331;48.806;9.140;2024-01-30T09:35:47;6.80;1.00
4637;DHT22;2331;48.806;9.140;2024-01-30T09:38:14;6.90;1.00
4637;DHT22;2331;48.806;9.140;2024-01-30T09:40:40;6.90;1.00
4637;DHT22;2331;48.806;9.140;2024-01-30T09:43:08;7.00;1.00
4637;DHT22;2331;48.806;9.140;2024-01-30T09:45:37;7.10;1.00
4637;DHT22;2331;48.806;9.140;2024-01-30T09:48:06;7.10;1.00
4637;DHT22;2331;48.806;9.140;2024-01-30T09:50:34;7.20;1.00
4637;DHT22;2331;48.806;9.140;2024-01-30T09:53:04;7.20;1.00
4637;DHT22;2331;48.806;9.140;2024-01-30T09:55:31;7.30;1.00
4637;DHT22;2331;48.806;9.140;2024-01-30T09:57:58;7.40;1.00
4637;DHT22;2331;48.806;9.140;2024-01-30T10:00:25;7.40;1.00
4637;DHT22;2331;48.806;9.140;2024-01-30T10:02:52;7.50;1.00
4637;DHT22;2331;48.806;9.140;2024-01-30T10:05:22;7.60;1.00
4637;DHT22;2331;48.806;9.140;2024-01-30T10:07:53;7.60;1.00
4637;DHT22;2331;48.806;9.140;2024-01-30T10:10:22;7.70;1.00
4637;DHT22;2331;48.806;9.140;2024-01-30T10:12:48;7.70;1.00
4637;DHT22;2331;48.806;9.140;2024-01-30T10:15:15;7.80;1.00
4637;DHT22;2331;48.806;9.140;2024-01-30T10:17:44;7.90;1.00
4637;DHT22;2331;48.806;9.140;2024-01-30T10:20:11;7.90;1.00
4637;DHT22;2331;48.806;9.140;2024-01-30T10:22:40;8.00;1.00
4637;DHT22;2331;48.806;9.140;2024-01-30T10:25:09;8.10;1.00
4637;DHT22;2331;48.806;9.140;2024-01-30T10:27:36;8.10;1.00
4637;DHT22;2331;48.806;9.140;2024-01-30T10:30:03;8.20;1.00
4637;DHT22;2331;48.806;9.140;2024-01-30T10:32:30;8.30;1.00
4637;DHT22;2331;48.806;9.140;2024-01-30T10:34:57;8.30;1.00
4637;DHT22;2331;48.806;9.140;2024-01-30T10:37:25;8.40;1.00
4637;DHT22;2331;48.806;9.140;2024-01-30T10:39:54;8.50;1.00
4637;DHT22;2331;48.806;9.140;2024-01-30T10:42:25;8.60;1.00
4637;DHT22;2331;48.806;9.140;2024-01-30T10:44:57;8.60;1.00
4637;DHT22;2331;48.806;9.140;2024-01-30T10:47:27;8.60;1.00
4637;DHT22;2331;48.806;9.140;2024-01-30T10:49:54;8.70;1.00
4637;DHT22;2331;48.806;9.140;2024-01-30T10:52:23;8.80;1.00
4637;DHT22;2331;48.806;9.140;2024-01-30T10:54:54;8.80;1.00
4637;DHT22;2331;48.806;9.140;2024-01-30T10:57:23;8.90;1.00
4637;DHT22;2331;48.806;9.140;2024-01-30T10:59:53;9.00;1.00
4637;DHT22;2331;48.806;9.140;2024-01-30T11:02:22;9.00;1.00
4637;DHT22;2331;48.806;9.140;2024-01-30T11:04:54;9.10;1.00
4637;DHT22;2331;48.806;9.140;2024-01-30T11:07:25;9.20;1.00
4637;DHT22;2331;48.806;9.140;2024-01-30T11:10:03;9.20;1.00
4637;DHT22;2331;48.806;9.140;2024-01-30T11:12:31;9.30;1.00
4637;DHT22;2331;48.806;9.140;2024-01-30T11:15:04;9.40;1.00
4637;DHT22;2331;48.806;9.140;2024-01-30T11:17:40;9.50;1.00
4637;DHT22;2331;48.806;9.140;2024-01-30T11:20:10;9.50;1.00
4637;DHT22;2331;48.806;9.140;2024-01-30T11:22:37;9.60;1.00
4637;DHT22;2331;48.806;9.140;2024-01-30T11:25:05;9.60;1.00
4637;DHT22;2331;48.806;9.140;2024-01-30T11:27:33;9.70;1.00
4637;DHT22;2331;48.806;9.140;2024-01-30T11:30:01;9.70;1.00
4637;DHT22;2331;48.806;9.140;2024-01-30T11:32:28;9.80;1.00
4637;DHT22;2331;48.806;9.140;2024-01-30T11:34:55;9.80;1.00
4637;DHT22;2331;48.806;9.140;2024-01-30T11:37:25;9.90;1.00
4637;DHT22;2331;48.806;9.140;2024-01-30T11:39:53;10.00;1.00
4637;DHT22;2331;48.806;9.140;2024-01-30T11:42:23;10.00;1.00
4637;DHT22;2331;48.806;9.140;2024-01-30T11:44:51;10.10;1.00
4637;DHT22;2331;48.806;9.140;2024-01-30T11:47:18;10.10;1.00
4637;DHT22;2331;48.806;9.140;2024-01-30T11:49:44;10.20;1.00
4637;DHT22;2331;48.806;9.140;2024-01-30T11:52:11;10.20;1.00
4637;DHT22;2331;48.806;9.140;2024-01-30T11:54:40;10.40;1.00
4637;DHT22;2331;48.806;9.140;2024-01-30T11:57:06;10.40;1.00
4637;DHT22;2331;48.806;9.140;2024-01-30T11:59:34;10.40;1.00
4637;DHT22;2331;48.806;9.140;2024-01-30T12:02:01;10.50;1.00
4637;DHT22;2331;48.806;9.140;2024-01-30T12:04:31;10.60;1.00
4637;DHT22;2331;48.806;9.140;2024-01-30T12:06:58;10.60;1.00
4637;DHT22;2331;48.806;9.140;2024-01-30T12:09:25;10.60;1.00
4637;DHT22;2331;48.806;9.140;2024-01-30T12:11:53;10.70;1.00
4637;DHT22;2331;48.806;9.140;2024-01-30T12:14:20;10.80;1.00
4637;DHT22;2331;48.806;9.140;2024-01-30T12:16:52;10.80;1.00
4637;DHT22;2331;48.806;9.140;2024-01-30T12:19:22;10.90;1.00
4637;DHT22;2331;48.806;9.140;2024-01-30T12:21:54;11.00;1.00
4637;DHT22;2331;48.806;9.140;2024-01-30T12:24:21;11.00;1.00
4637;DHT22;2331;48.806;9.140;2024-01-30T12:26:48;11.00;1.00
4637;DHT22;2331;48.806;9.140;2024-01-30T12:29:15;11.10;1.00
4637;DHT22;2331;48.806;9.140;2024-01-30T12:31:42;11.20;1.00
4637;DHT22;2331;48.806;9.140;2024-01-30T12:34:13;11.20;1.00
4637;DHT22;2331;48.806;9.140;2024-01-30T12:36:41;11.20;1.00
4637;DHT22;2331;48.806;9.140;2024-01-30T12:39:11;11.30;1.00
4637;DHT22;2331;48.806;9.140;2024-01-30T12:41:38;11.40;1.00
4637;DHT22;2331;48.806;9.140;2024-01-30T12:44:04;11.50;1.00
4637;DHT22;2331;48.806;9.140;2024-01-30T12:46:31;11.50;1.00
4637;DHT22;2331;48.806;9.140;2024-01-30T12:49:00;11.60;1.00
4637;DHT22;2331;48.806;9.140;2024-01-30T12:51:28;11.70;1.00
4637;DHT22;2331;48.806;9.140;2024-01-30T12:53:55;11.70;1.00
4637;DHT22;2331;48.806;9.140;2024-01-30T12:56:22;11.70;1.00
4637;DHT22;2331;48.806;9.140;2024-01-30T12:58:49;11.80;1.00
4637;DHT22;2331;48.806;9.140;2024-01-30T13:01:16;11.90;1.00
4637;DHT22;2331;48.806;9.140;2024-01-30T13:03:42;12.00;1.00
4637;DHT22;2331;48.806;9.140;2024-01-30T13:06:09;12.00;1.00
4637;DHT22;2331;48.806;9.140;2024-01-30T13:08:37;12.10;1.00
4637;DHT22;2331;48.806;9.140;2024-01-30T13:11:04;12.20;1.00
4637;DHT22;2331;48.806;9.140;2024-01-30T13:13:31;12.30;1.00
4637;DHT22;2331;48.806;9.140;2024-01-30T13:15:58;12.40;1.00
4637;DHT22;2331;48.806;9.140;2024-01-30T13:18:24;12.50;1.00
4637;DHT22;2331;48.806;9.140;2024-01-30T13:20:51;12.60;1.00
4637;DHT22;2331;48.806;9.140;2024-01-30T13:23:18;12.70;1.00
4637;DHT22;2331;48.806;9.140;2024-01-30T13:25:46;12.80;1.00
4637;DHT22;2331;48.806;9.140;2024-01-30T13:28:13;12.80;1.00
4637;DHT22;2331;48.806;9.140;2024-01-30T13:30:39;12.90;1.00
4637;DHT22;2331;48.806;9.140;2024-01-30T13:33:06;12.90;1.00
4637;DHT22;2331;48.806;9.140;2024-01-30T13:35:33;12.90;1.00
4637;DHT22;2331;48.806;9.140;2024-01-30T13:38:02;13.00;1.00
4637;DHT22;2331;48.806;9.140;2024-01-30T13:40:28;13.10;1.00
4637;DHT22;2331;48.806;9.140;2024-01-30T13:42:56;13.10;1.00
4637;DHT22;2331;48.806;9.140;2024-01-30T13:45:23;13.10;1.00
4637;DHT22;2331;48.806;9.140;2024-01-30T13:47:50;13.10;1.00
4637;DHT22;2331;48.806;9.140;2024-01-30T13:50:16;13.20;1.00
4637;DHT22;2331;48.806;9.140;2024-01-30T13:52:42;13.20;1.00
4637;DHT22;2331;48.806;9.140;2024-01-30T13:55:09;13.20;1.00
4637;DHT22;2331;48.806;9.140;2024-01-30T13:57:37;13.20;1.00
4637;DHT22;2331;48.806;9.140;2024-01-30T14:00:06;13.30;1.00
4637;DHT22;2331;48.806;9.140;2024-01-30T14:02:33;13.30;1.00
4637;DHT22;2331;48.806;9.140;2024-01-30T14:05:00;13.30;1.00
4637;DHT22;2331;48.806;9.140;2024-01-30T14:07:26;13.30;1.00
4637;DHT22;2331;48.806;9.140;2024-01-30T14:09:53;13.40;1.00
4637;DHT22;2331;48.806;9.140;2024-01-30T14:12:20;13.40;1.00
4637;DHT22;2331;48.806;9.140;2024-01-30T14:14:47;13.40;1.00
4637;DHT22;2331;48.806;9.140;2024-01-30T14:17:15;13.40;1.00
4637;DHT22;2331;48.806;9.140;2024-01-30T14:19:42;13.40;1.00
4637;DHT22;2331;48.806;9.140;2024-01-30T14:22:09;13.40;1.00
4637;DHT22;2331;48.806;9.140;2024-01-30T14:24:36;13.40;1.00
4637;DHT22;2331;48.806;9.140;2024-01-30T14:27:04;13.50;1.00
4637;DHT22;2331;48.806;9.140;2024-01-30T14:29:30;13.50;1.00
4637;DHT22;2331;48.806;9.140;2024-01-30T14:31:57;13.40;1.00
4637;DHT22;2331;48.806;9.140;2024-01-30T14:34:25;13.40;1.00
4637;DHT22;2331;48.806;9.140;2024-01-30T14:36:52;13.40;1.00
4637;DHT22;2331;48.806;9.140;2024-01-30T14:39:19;13.40;1.00
4637;DHT22;2331;48.806;9.140;2024-01-30T14:41:46;13.40;1.00
4637;DHT22;2331;48.806;9.140;2024-01-30T14:44:12;13.40;1.00
4637;DHT22;2331;48.806;9.140;2024-01-30T14:46:40;13.40;1.00
4637;DHT22;2331;48.806;9.140;2024-01-30T14:49:07;13.40;1.00
4637;DHT22;2331;48.806;9.140;2024-01-30T14:51:36;13.40;1.00
4637;DHT22;2331;48.806;9.140;2024-01-30T14:54:03;13.40;1.00
4637;DHT22;2331;48.806;9.140;2024-01-30T14:56:30;13.40;1.00
4637;DHT22;2331;48.806;9.140;2024-01-30T14:58:58;13.50;1.00
4637;DHT22;2331;48.806;9.140;2024-01-30T15:01:25;13.40;1.00
4637;DHT22;2331;48.806;9.140;2024-01-30T15:03:51;13.40;1.00
4637;DHT22;2331;48.806;9.140;2024-01-30T15:06:18;13.40;1.00
4637;DHT22;2331;48.806;9.140;2024-01-30T15:08:47;13.40;1.00
4637;DHT22;2331;48.806;9.140;2024-01-30T15:11:14;13.30;1.00
4637;DHT22;2331;48.806;9.140;2024-01-30T15:13:41;13.30;1.00
4637;DHT22;2331;48.806;9.140;2024-01-30T15:16:08;13.30;1.00
4637;DHT22;2331;48.806;9.140;2024-01-30T15:18:34;13.30;1.00
4637;DHT22;2331;48.806;9.140;2024-01-30T15:21:01;13.30;1.00
4637;DHT22;2331;48.806;9.140;2024-01-30T15:23:28;13.30;1.00
4637;DHT22;2331;48.806;9.140;2024-01-30T15:25:56;13.30;1.00
4637;DHT22;2331;48.806;9.140;2024-01-30T15:28:34;13.20;1.00
4637;DHT22;2331;48.806;9.140;2024-01-30T15:31:01;13.20;1.00
4637;DHT22;2331;48.806;9.140;2024-01-30T15:33:28;13.20;1.00
4637;DHT22;2331;48.806;9.140;2024-01-30T15:35:55;13.20;1.00
4637;DHT22;2331;48.806;9.140;2024-01-30T15:38:21;13.10;1.00
4637;DHT22;2331;48.806;9.140;2024-01-30T15:40:48;13.10;1.00
4637;DHT22;2331;48.806;9.140;2024-01-30T15:43:16;13.00;1.00
4637;DHT22;2331;48.806;9.140;2024-01-30T15:45:43;13.00;1.00
4637;DHT22;2331;48.806;9.140;2024-01-30T15:48:10;13.10;1.00
4637;DHT22;2331;48.806;9.140;2024-01-30T15:50:36;13.10;1.00
4637;DHT22;2331;48.806;9.140;2024-01-30T15:53:04;13.10;1.00
4637;DHT22;2331;48.806;9.140;2024-01-30T15:55:31;13.10;1.00
4637;DHT22;2331;48.806;9.140;2024-01-30T15:57:58;13.10;1.00
4637;DHT22;2331;48.806;9.140;2024-01-30T16:00:26;13.10;1.00
4637;DHT22;2331;48.806;9.140;2024-01-30T16:02:52;13.10;1.00
4637;DHT22;2331;48.806;9.140;2024-01-30T16:05:19;13.10;1.00
4637;DHT22;2331;48.806;9.140;2024-01-30T16:07:46;13.00;1.00
4637;DHT22;2331;48.806;9.140;2024-01-30T16:10:13;13.00;1.00
4637;DHT22;2331;48.806;9.140;2024-01-30T16:12:42;13.00;1.00
4637;DHT22;2331;48.806;9.140;2024-01-30T16:15:14;13.10;1.00
4637;DHT22;2331;48.806;9.140;2024-01-30T16:17:42;13.00;1.00
4637;DHT22;2331;48.806;9.140;2024-01-30T16:20:09;13.00;1.00
4637;DHT22;2331;48.806;9.140;2024-01-30T16:22:36;12.80;1.00
4637;DHT22;2331;48.806;9.140;2024-01-30T16:25:03;12.80;1.00
4637;DHT22;2331;48.806;9.140;2024-01-30T16:30:48;12.80;1.00
4637;DHT22;2331;48.806;9.140;2024-01-30T16:33:19;12.90;1.00